sensor_id;sensor_type;location;lat;lon;timestamp;P1;durP1;ratioP1;P2;durP2;ratioP2
53497;SDS011;39382;47.168;16.008;2023-10-13T00:01:18;6.60;;;3.67;;
53497;SDS011;39382;47.168;16.008;2023-10-13T00:03:44;7.93;;;3.28;;
53497;SDS011;39382;47.168;16.008;2023-10-13T00:06:09;13.65;;;3.88;;
53497;SDS011;39382;47.168;16.008;2023-10-13T00:08:35;7.93;;;4.18;;
53497;SDS011;39382;47.168;16.008;2023-10-13T00:11:05;7.70;;;3.20;;
53497;SDS011;39382;47.168;16.008;2023-10-13T00:13:31;6.15;;;3.10;;
53497;SDS011;39382;47.168;16.008;2023-10-13T00:16:07;6.00;;;3.60;;
53497;SDS011;39382;47.168;16.008;2023-10-13T00:18:35;7.05;;;3.63;;
53497;SDS011;39382;47.168;16.008;2023-10-13T00:21:07;6.55;;;2.97;;
53497;SDS011;39382;47.168;16.008;2023-10-13T00:23:52;7.85;;;3.28;;
53497;SDS011;39382;47.168;16.008;2023-10-13T00:26:21;7.40;;;3.65;;
53497;SDS011;39382;47.168;16.008;2023-10-13T00:29:02;3.95;;;3.00;;
53497;SDS011;39382;47.168;16.008;2023-10-13T00:31:28;8.48;;;3.08;;
53497;SDS011;39382;47.168;16.008;2023-10-13T00:33:58;10.80;;;3.35;;
53497;SDS011;39382;47.168;16.008;2023-10-13T00:36:34;4.93;;;3.38;;
53497;SDS011;39382;47.168;16.008;2023-10-13T00:39:00;8.98;;;3.58;;
53497;SDS011;39382;47.168;16.008;2023-10-13T00:41:28;7.45;;;3.65;;
53497;SDS011;39382;47.168;16.008;2023-10-13T00:44:16;5.95;;;3.05;;
53497;SDS011;39382;47.168;16.008;2023-10-13T00:46:43;6.95;;;3.42;;
53497;SDS011;39382;47.168;16.008;2023-10-13T00:49:10;9.10;;;3.22;;
53497;SDS011;39382;47.168;16.008;2023-10-13T00:51:40;5.50;;;2.95;;
53497;SDS011;39382;47.168;16.008;2023-10-13T00:54:12;5.78;;;2.72;;
53497;SDS011;39382;47.168;16.008;2023-10-13T00:56:39;6.03;;;3.35;;
53497;SDS011;39382;47.168;16.008;2023-10-13T00:59:14;7.68;;;3.20;;
53497;SDS011;39382;47.168;16.008;2023-10-13T01:01:41;9.20;;;3.72;;
53497;SDS011;39382;47.168;16.008;2023-10-13T01:04:10;4.43;;;3.22;;
53497;SDS011;39382;47.168;16.008;2023-10-13T01:06:38;6.43;;;2.70;;
53497;SDS011;39382;47.168;16.008;2023-10-13T01:11:41;5.50;;;3.25;;
53497;SDS011;39382;47.168;16.008;2023-10-13T01:14:09;4.95;;;3.75;;
53497;SDS011;39382;47.168;16.008;2023-10-13T01:16:36;5.88;;;3.25;;
53497;SDS011;39382;47.168;16.008;2023-10-13T01:19:08;3.40;;;2.88;;
53497;SDS011;39382;47.168;16.008;2023-10-13T01:21:38;4.88;;;3.22;;
53497;SDS011;39382;47.168;16.008;2023-10-13T01:24:06;6.90;;;3.88;;
53497;SDS011;39382;47.168;16.008;2023-10-13T01:26:33;3.88;;;2.65;;
53497;SDS011;39382;47.168;16.008;2023-10-13T01:29:04;11.73;;;3.33;;
53497;SDS011;39382;47.168;16.008;2023-10-13T01:31:43;7.35;;;3.42;;
53497;SDS011;39382;47.168;16.008;2023-10-13T01:34:13;6.35;;;3.30;;
53497;SDS011;39382;47.168;16.008;2023-10-13T01:36:56;3.92;;;2.83;;
53497;SDS011;39382;47.168;16.008;2023-10-13T01:39:22;10.00;;;3.25;;
53497;SDS011;39382;47.168;16.008;2023-10-13T01:41:53;6.75;;;3.10;;
53497;SDS011;39382;47.168;16.008;2023-10-13T01:44:26;6.35;;;3.53;;
53497;SDS011;39382;47.168;16.008;2023-10-13T01:49:37;6.97;;;2.53;;
53497;SDS011;39382;47.168;16.008;2023-10-13T01:52:12;7.30;;;3.35;;
53497;SDS011;39382;47.168;16.008;2023-10-13T01:54:41;5.45;;;3.17;;
53497;SDS011;39382;47.168;16.008;2023-10-13T01:57:09;4.78;;;2.92;;
53497;SDS011;39382;47.168;16.008;2023-10-13T01:59:46;5.63;;;3.17;;
53497;SDS011;39382;47.168;16.008;2023-10-13T02:02:13;7.45;;;2.88;;
53497;SDS011;39382;47.168;16.008;2023-10-13T02:04:39;6.45;;;3.50;;
53497;SDS011;39382;47.168;16.008;2023-10-13T02:07:14;4.93;;;2.87;;
53497;SDS011;39382;47.168;16.008;2023-10-13T02:09:40;5.57;;;3.00;;
53497;SDS011;39382;47.168;16.008;2023-10-13T02:12:08;5.63;;;3.90;;
53497;SDS011;39382;47.168;16.008;2023-10-13T02:14:34;4.80;;;2.67;;
53497;SDS011;39382;47.168;16.008;2023-10-13T02:17:02;6.18;;;3.00;;
53497;SDS011;39382;47.168;16.008;2023-10-13T02:19:41;13.32;;;3.63;;
53497;SDS011;39382;47.168;16.008;2023-10-13T02:22:10;4.53;;;3.15;;
53497;SDS011;39382;47.168;16.008;2023-10-13T02:24:37;18.15;;;3.20;;
53497;SDS011;39382;47.168;16.008;2023-10-13T02:27:06;7.25;;;3.90;;
53497;SDS011;39382;47.168;16.008;2023-10-13T02:29:38;8.90;;;2.88;;
53497;SDS011;39382;47.168;16.008;2023-10-13T02:32:05;7.07;;;3.72;;
53497;SDS011;39382;47.168;16.008;2023-10-13T02:34:37;7.10;;;2.92;;
53497;SDS011;39382;47.168;16.008;2023-10-13T02:37:09;11.70;;;3.50;;
53497;SDS011;39382;47.168;16.008;2023-10-13T02:39:35;5.30;;;3.47;;
53497;SDS011;39382;47.168;16.008;2023-10-13T02:42:01;7.03;;;3.53;;
53497;SDS011;39382;47.168;16.008;2023-10-13T02:44:32;4.60;;;2.53;;
53497;SDS011;39382;47.168;16.008;2023-10-13T02:46:58;6.10;;;3.22;;
53497;SDS011;39382;47.168;16.008;2023-10-13T02:49:27;6.40;;;3.45;;
53497;SDS011;39382;47.168;16.008;2023-10-13T02:51:58;6.03;;;3.28;;
53497;SDS011;39382;47.168;16.008;2023-10-13T02:54:30;7.60;;;2.88;;
53497;SDS011;39382;47.168;16.008;2023-10-13T02:56:56;6.80;;;3.28;;
53497;SDS011;39382;47.168;16.008;2023-10-13T02:59:26;9.20;;;3.03;;
53497;SDS011;39382;47.168;16.008;2023-10-13T03:02:10;8.13;;;2.90;;
53497;SDS011;39382;47.168;16.008;2023-10-13T03:04:48;8.68;;;3.30;;
53497;SDS011;39382;47.168;16.008;2023-10-13T03:07:24;8.30;;;2.92;;
53497;SDS011;39382;47.168;16.008;2023-10-13T03:09:59;7.80;;;2.90;;
53497;SDS011;39382;47.168;16.008;2023-10-13T03:12:34;4.32;;;3.70;;
53497;SDS011;39382;47.168;16.008;2023-10-13T03:15:01;5.22;;;2.70;;
53497;SDS011;39382;47.168;16.008;2023-10-13T03:17:39;8.23;;;3.85;;
53497;SDS011;39382;47.168;16.008;2023-10-13T03:20:09;10.15;;;2.75;;
53497;SDS011;39382;47.168;16.008;2023-10-13T03:22:40;4.45;;;3.53;;
53497;SDS011;39382;47.168;16.008;2023-10-13T03:25:06;8.63;;;3.00;;
53497;SDS011;39382;47.168;16.008;2023-10-13T03:27:33;6.93;;;3.25;;
53497;SDS011;39382;47.168;16.008;2023-10-13T03:32:55;3.95;;;2.50;;
53497;SDS011;39382;47.168;16.008;2023-10-13T03:35:21;7.50;;;2.88;;
53497;SDS011;39382;47.168;16.008;2023-10-13T03:40:16;7.22;;;3.08;;
53497;SDS011;39382;47.168;16.008;2023-10-13T03:42:48;11.75;;;4.47;;
53497;SDS011;39382;47.168;16.008;2023-10-13T03:45:30;2.40;;;2.13;;
53497;SDS011;39382;47.168;16.008;2023-10-13T03:48:04;9.38;;;3.65;;
53497;SDS011;39382;47.168;16.008;2023-10-13T03:50:38;8.95;;;2.92;;
53497;SDS011;39382;47.168;16.008;2023-10-13T03:53:22;15.52;;;3.03;;
53497;SDS011;39382;47.168;16.008;2023-10-13T03:55:50;8.52;;;2.72;;
53497;SDS011;39382;47.168;16.008;2023-10-13T03:58:32;9.07;;;3.45;;
53497;SDS011;39382;47.168;16.008;2023-10-13T04:01:03;7.82;;;3.80;;
53497;SDS011;39382;47.168;16.008;2023-10-13T04:03:29;5.47;;;3.30;;
53497;SDS011;39382;47.168;16.008;2023-10-13T04:06:06;11.30;;;3.20;;
53497;SDS011;39382;47.168;16.008;2023-10-13T04:08:33;5.65;;;2.80;;
53497;SDS011;39382;47.168;16.008;2023-10-13T04:11:08;7.88;;;3.08;;
53497;SDS011;39382;47.168;16.008;2023-10-13T04:13:52;8.00;;;3.10;;
53497;SDS011;39382;47.168;16.008;2023-10-13T04:16:37;7.13;;;4.18;;
53497;SDS011;39382;47.168;16.008;2023-10-13T04:19:05;8.50;;;3.13;;
53497;SDS011;39382;47.168;16.008;2023-10-13T04:21:33;4.50;;;3.15;;
53497;SDS011;39382;47.168;16.008;2023-10-13T04:24:08;6.13;;;3.50;;
53497;SDS011;39382;47.168;16.008;2023-10-13T04:29:27;8.23;;;3.33;;
53497;SDS011;39382;47.168;16.008;2023-10-13T04:32:11;5.28;;;2.50;;
53497;SDS011;39382;47.168;16.008;2023-10-13T04:34:44;7.70;;;3.75;;
53497;SDS011;39382;47.168;16.008;2023-10-13T04:37:16;7.65;;;3.38;;
53497;SDS011;39382;47.168;16.008;2023-10-13T04:39:54;7.93;;;3.38;;
53497;SDS011;39382;47.168;16.008;2023-10-13T04:42:34;6.70;;;3.15;;
53497;SDS011;39382;47.168;16.008;2023-10-13T04:45:19;8.73;;;3.13;;
53497;SDS011;39382;47.168;16.008;2023-10-13T04:47:58;5.25;;;3.15;;
53497;SDS011;39382;47.168;16.008;2023-10-13T04:50:44;6.78;;;3.55;;
53497;SDS011;39382;47.168;16.008;2023-10-13T04:53:22;5.43;;;2.95;;
53497;SDS011;39382;47.168;16.008;2023-10-13T04:56:20;5.15;;;3.10;;
53497;SDS011;39382;47.168;16.008;2023-10-13T04:59:05;5.80;;;3.55;;
53497;SDS011;39382;47.168;16.008;2023-10-13T05:01:49;8.27;;;3.00;;
53497;SDS011;39382;47.168;16.008;2023-10-13T05:04:33;6.78;;;3.33;;
53497;SDS011;39382;47.168;16.008;2023-10-13T05:07:24;7.25;;;3.20;;
53497;SDS011;39382;47.168;16.008;2023-10-13T05:10:08;6.35;;;2.90;;
53497;SDS011;39382;47.168;16.008;2023-10-13T05:12:52;4.88;;;3.20;;
53497;SDS011;39382;47.168;16.008;2023-10-13T05:15:42;9.93;;;3.60;;
53497;SDS011;39382;47.168;16.008;2023-10-13T05:18:33;9.98;;;3.33;;
53497;SDS011;39382;47.168;16.008;2023-10-13T05:21:20;7.10;;;3.03;;
53497;SDS011;39382;47.168;16.008;2023-10-13T05:24:04;5.05;;;4.45;;
53497;SDS011;39382;47.168;16.008;2023-10-13T05:26:49;8.82;;;3.63;;
53497;SDS011;39382;47.168;16.008;2023-10-13T05:29:37;6.80;;;3.03;;
53497;SDS011;39382;47.168;16.008;2023-10-13T05:32:23;6.78;;;3.22;;
53497;SDS011;39382;47.168;16.008;2023-10-13T05:35:07;5.05;;;2.72;;
53497;SDS011;39382;47.168;16.008;2023-10-13T05:37:51;5.38;;;2.38;;
53497;SDS011;39382;47.168;16.008;2023-10-13T05:40:35;10.50;;;3.70;;
53497;SDS011;39382;47.168;16.008;2023-10-13T05:43:20;6.65;;;3.03;;
53497;SDS011;39382;47.168;16.008;2023-10-13T05:46:04;8.40;;;3.22;;
53497;SDS011;39382;47.168;16.008;2023-10-13T05:48:49;4.55;;;2.78;;
53497;SDS011;39382;47.168;16.008;2023-10-13T05:51:26;6.47;;;3.65;;
53497;SDS011;39382;47.168;16.008;2023-10-13T05:54:11;10.52;;;3.53;;
53497;SDS011;39382;47.168;16.008;2023-10-13T05:56:59;7.97;;;3.30;;
53497;SDS011;39382;47.168;16.008;2023-10-13T05:59:42;9.95;;;4.03;;
53497;SDS011;39382;47.168;16.008;2023-10-13T06:02:27;9.40;;;3.67;;
53497;SDS011;39382;47.168;16.008;2023-10-13T06:05:11;10.75;;;2.90;;
53497;SDS011;39382;47.168;16.008;2023-10-13T06:07:56;11.93;;;3.40;;
53497;SDS011;39382;47.168;16.008;2023-10-13T06:10:41;5.63;;;3.30;;
53497;SDS011;39382;47.168;16.008;2023-10-13T06:13:27;9.90;;;3.58;;
53497;SDS011;39382;47.168;16.008;2023-10-13T06:16:12;12.73;;;4.68;;
53497;SDS011;39382;47.168;16.008;2023-10-13T06:21:42;17.63;;;4.70;;
53497;SDS011;39382;47.168;16.008;2023-10-13T06:24:27;12.07;;;3.55;;
53497;SDS011;39382;47.168;16.008;2023-10-13T06:27:11;15.32;;;4.18;;
53497;SDS011;39382;47.168;16.008;2023-10-13T06:29:55;7.22;;;3.50;;
53497;SDS011;39382;47.168;16.008;2023-10-13T06:32:21;7.57;;;4.05;;
53497;SDS011;39382;47.168;16.008;2023-10-13T06:34:57;15.27;;;3.40;;
53497;SDS011;39382;47.168;16.008;2023-10-13T06:37:23;12.18;;;4.63;;
53497;SDS011;39382;47.168;16.008;2023-10-13T06:39:56;7.85;;;3.45;;
53497;SDS011;39382;47.168;16.008;2023-10-13T06:42:33;9.43;;;3.92;;
53497;SDS011;39382;47.168;16.008;2023-10-13T06:45:07;7.07;;;3.77;;
53497;SDS011;39382;47.168;16.008;2023-10-13T06:47:37;9.75;;;5.15;;
53497;SDS011;39382;47.168;16.008;2023-10-13T06:50:06;8.95;;;3.90;;
53497;SDS011;39382;47.168;16.008;2023-10-13T06:52:40;7.20;;;4.10;;
53497;SDS011;39382;47.168;16.008;2023-10-13T06:55:07;10.80;;;3.63;;
53497;SDS011;39382;47.168;16.008;2023-10-13T06:57:35;9.30;;;4.47;;
53497;SDS011;39382;47.168;16.008;2023-10-13T07:00:07;6.97;;;3.78;;
53497;SDS011;39382;47.168;16.008;2023-10-13T07:02:37;10.07;;;3.92;;
53497;SDS011;39382;47.168;16.008;2023-10-13T07:05:02;8.52;;;4.22;;
53497;SDS011;39382;47.168;16.008;2023-10-13T07:07:32;7.47;;;3.78;;
53497;SDS011;39382;47.168;16.008;2023-10-13T07:09:58;9.60;;;4.35;;
53497;SDS011;39382;47.168;16.008;2023-10-13T07:12:24;12.90;;;5.13;;
53497;SDS011;39382;47.168;16.008;2023-10-13T07:14:53;9.95;;;4.43;;
53497;SDS011;39382;47.168;16.008;2023-10-13T07:17:39;9.00;;;4.38;;
53497;SDS011;39382;47.168;16.008;2023-10-13T07:20:06;8.25;;;3.70;;
53497;SDS011;39382;47.168;16.008;2023-10-13T07:22:58;9.38;;;4.70;;
53497;SDS011;39382;47.168;16.008;2023-10-13T07:25:36;10.25;;;3.47;;
53497;SDS011;39382;47.168;16.008;2023-10-13T07:28:03;13.05;;;4.53;;
53497;SDS011;39382;47.168;16.008;2023-10-13T07:30:31;11.30;;;3.83;;
53497;SDS011;39382;47.168;16.008;2023-10-13T07:33:04;8.27;;;3.47;;
53497;SDS011;39382;47.168;16.008;2023-10-13T07:35:31;10.82;;;4.13;;
53497;SDS011;39382;47.168;16.008;2023-10-13T07:38:00;5.10;;;2.92;;
53497;SDS011;39382;47.168;16.008;2023-10-13T07:40:26;10.15;;;4.68;;
53497;SDS011;39382;47.168;16.008;2023-10-13T07:42:52;12.48;;;3.90;;
53497;SDS011;39382;47.168;16.008;2023-10-13T07:45:26;9.30;;;3.47;;
53497;SDS011;39382;47.168;16.008;2023-10-13T07:48:01;5.97;;;3.67;;
53497;SDS011;39382;47.168;16.008;2023-10-13T07:50:41;7.22;;;4.38;;
53497;SDS011;39382;47.168;16.008;2023-10-13T07:53:06;5.93;;;3.47;;
53497;SDS011;39382;47.168;16.008;2023-10-13T07:55:46;9.90;;;3.60;;
53497;SDS011;39382;47.168;16.008;2023-10-13T07:58:24;9.70;;;3.35;;
53497;SDS011;39382;47.168;16.008;2023-10-13T08:00:53;6.25;;;3.30;;
53497;SDS011;39382;47.168;16.008;2023-10-13T08:03:40;9.02;;;3.63;;
53497;SDS011;39382;47.168;16.008;2023-10-13T08:06:09;6.50;;;3.67;;
53497;SDS011;39382;47.168;16.008;2023-10-13T08:08:35;6.20;;;3.63;;
53497;SDS011;39382;47.168;16.008;2023-10-13T08:13:36;6.40;;;3.47;;
53497;SDS011;39382;47.168;16.008;2023-10-13T08:16:11;6.13;;;3.58;;
53497;SDS011;39382;47.168;16.008;2023-10-13T08:18:46;5.35;;;3.55;;
53497;SDS011;39382;47.168;16.008;2023-10-13T08:21:14;5.78;;;3.72;;
53497;SDS011;39382;47.168;16.008;2023-10-13T08:23:48;5.70;;;2.38;;
53497;SDS011;39382;47.168;16.008;2023-10-13T08:29:02;5.78;;;3.25;;
53497;SDS011;39382;47.168;16.008;2023-10-13T08:31:44;7.00;;;3.13;;
53497;SDS011;39382;47.168;16.008;2023-10-13T08:34:34;4.22;;;2.72;;
53497;SDS011;39382;47.168;16.008;2023-10-13T08:37:24;5.18;;;3.00;;
53497;SDS011;39382;47.168;16.008;2023-10-13T08:40:14;6.78;;;3.05;;
53497;SDS011;39382;47.168;16.008;2023-10-13T08:43:06;8.20;;;2.53;;
53497;SDS011;39382;47.168;16.008;2023-10-13T08:45:37;5.60;;;2.78;;
53497;SDS011;39382;47.168;16.008;2023-10-13T08:48:10;7.43;;;2.70;;
53497;SDS011;39382;47.168;16.008;2023-10-13T08:50:52;6.45;;;3.15;;
53497;SDS011;39382;47.168;16.008;2023-10-13T08:56:07;5.13;;;2.38;;
53497;SDS011;39382;47.168;16.008;2023-10-13T08:58:40;10.20;;;3.05;;
53497;SDS011;39382;47.168;16.008;2023-10-13T09:04:07;4.53;;;2.05;;
53497;SDS011;39382;47.168;16.008;2023-10-13T09:09:25;5.72;;;3.55;;
53497;SDS011;39382;47.168;16.008;2023-10-13T09:11:53;4.00;;;2.67;;
53497;SDS011;39382;47.168;16.008;2023-10-13T09:14:32;6.10;;;2.78;;
53497;SDS011;39382;47.168;16.008;2023-10-13T09:17:01;6.00;;;2.63;;
53497;SDS011;39382;47.168;16.008;2023-10-13T09:19:49;7.05;;;2.78;;
53497;SDS011;39382;47.168;16.008;2023-10-13T09:22:25;5.75;;;3.38;;
53497;SDS011;39382;47.168;16.008;2023-10-13T09:24:56;9.18;;;2.63;;
53497;SDS011;39382;47.168;16.008;2023-10-13T09:27:26;5.18;;;2.65;;
53497;SDS011;39382;47.168;16.008;2023-10-13T09:30:00;4.18;;;2.53;;
53497;SDS011;39382;47.168;16.008;2023-10-13T09:32:43;8.18;;;2.70;;
53497;SDS011;39382;47.168;16.008;2023-10-13T09:35:17;2.95;;;1.75;;
53497;SDS011;39382;47.168;16.008;2023-10-13T09:37:44;7.22;;;2.40;;
53497;SDS011;39382;47.168;16.008;2023-10-13T09:40:12;5.20;;;1.92;;
53497;SDS011;39382;47.168;16.008;2023-10-13T09:42:59;5.68;;;2.05;;
53497;SDS011;39382;47.168;16.008;2023-10-13T09:45:33;4.00;;;1.92;;
53497;SDS011;39382;47.168;16.008;2023-10-13T09:48:09;5.22;;;1.85;;
53497;SDS011;39382;47.168;16.008;2023-10-13T09:50:43;5.40;;;1.95;;
53497;SDS011;39382;47.168;16.008;2023-10-13T09:53:11;4.57;;;1.65;;
53497;SDS011;39382;47.168;16.008;2023-10-13T09:55:43;3.63;;;2.17;;
53497;SDS011;39382;47.168;16.008;2023-10-13T09:58:13;6.45;;;2.42;;
53497;SDS011;39382;47.168;16.008;2023-10-13T10:00:46;4.32;;;2.00;;
53497;SDS011;39382;47.168;16.008;2023-10-13T10:03:22;3.03;;;2.08;;
53497;SDS011;39382;47.168;16.008;2023-10-13T10:05:59;3.05;;;1.90;;
53497;SDS011;39382;47.168;16.008;2023-10-13T10:08:30;6.35;;;2.67;;
53497;SDS011;39382;47.168;16.008;2023-10-13T10:11:13;3.97;;;2.00;;
53497;SDS011;39382;47.168;16.008;2023-10-13T10:13:52;4.05;;;1.95;;
53497;SDS011;39382;47.168;16.008;2023-10-13T10:19:32;4.97;;;3.03;;
53497;SDS011;39382;47.168;16.008;2023-10-13T10:22:04;5.50;;;2.13;;
53497;SDS011;39382;47.168;16.008;2023-10-13T10:24:41;3.40;;;2.00;;
53497;SDS011;39382;47.168;16.008;2023-10-13T10:27:08;6.95;;;2.08;;
53497;SDS011;39382;47.168;16.008;2023-10-13T10:29:39;4.47;;;1.65;;
53497;SDS011;39382;47.168;16.008;2023-10-13T10:32:17;2.95;;;2.00;;
53497;SDS011;39382;47.168;16.008;2023-10-13T10:34:44;4.15;;;2.03;;
53497;SDS011;39382;47.168;16.008;2023-10-13T10:37:09;4.63;;;1.52;;
53497;SDS011;39382;47.168;16.008;2023-10-13T10:39:37;2.65;;;1.67;;
53497;SDS011;39382;47.168;16.008;2023-10-13T10:42:13;3.78;;;1.50;;
53497;SDS011;39382;47.168;16.008;2023-10-13T10:44:49;6.07;;;1.92;;
53497;SDS011;39382;47.168;16.008;2023-10-13T10:47:20;9.13;;;2.35;;
53497;SDS011;39382;47.168;16.008;2023-10-13T10:49:56;5.75;;;2.20;;
53497;SDS011;39382;47.168;16.008;2023-10-13T10:52:32;5.45;;;2.42;;
53497;SDS011;39382;47.168;16.008;2023-10-13T10:55:02;8.45;;;1.95;;
53497;SDS011;39382;47.168;16.008;2023-10-13T10:57:39;4.07;;;1.95;;
53497;SDS011;39382;47.168;16.008;2023-10-13T11:00:17;6.35;;;2.10;;
53497;SDS011;39382;47.168;16.008;2023-10-13T11:02:54;2.00;;;1.55;;
53497;SDS011;39382;47.168;16.008;2023-10-13T11:05:23;5.63;;;1.60;;
53497;SDS011;39382;47.168;16.008;2023-10-13T11:07:57;5.10;;;1.83;;
53497;SDS011;39382;47.168;16.008;2023-10-13T11:10:23;4.57;;;1.65;;
53497;SDS011;39382;47.168;16.008;2023-10-13T11:12:57;2.92;;;1.77;;
53497;SDS011;39382;47.168;16.008;2023-10-13T11:15:42;2.78;;;2.10;;
53497;SDS011;39382;47.168;16.008;2023-10-13T11:18:12;2.75;;;1.38;;
53497;SDS011;39382;47.168;16.008;2023-10-13T11:20:41;5.50;;;1.90;;
53497;SDS011;39382;47.168;16.008;2023-10-13T11:23:11;3.13;;;1.73;;
53497;SDS011;39382;47.168;16.008;2023-10-13T11:25:37;3.08;;;1.80;;
53497;SDS011;39382;47.168;16.008;2023-10-13T11:28:16;3.67;;;1.80;;
53497;SDS011;39382;47.168;16.008;2023-10-13T11:30:43;3.40;;;1.45;;
53497;SDS011;39382;47.168;16.008;2023-10-13T11:33:14;3.58;;;1.10;;
53497;SDS011;39382;47.168;16.008;2023-10-13T11:35:52;6.07;;;2.42;;
53497;SDS011;39382;47.168;16.008;2023-10-13T11:38:18;3.05;;;1.67;;
53497;SDS011;39382;47.168;16.008;2023-10-13T11:40:54;5.22;;;1.88;;
53497;SDS011;39382;47.168;16.008;2023-10-13T11:43:31;4.47;;;1.67;;
53497;SDS011;39382;47.168;16.008;2023-10-13T11:46:01;3.03;;;1.73;;
53497;SDS011;39382;47.168;16.008;2023-10-13T11:48:33;3.15;;;1.38;;
53497;SDS011;39382;47.168;16.008;2023-10-13T11:51:02;1.92;;;1.08;;
53497;SDS011;39382;47.168;16.008;2023-10-13T11:53:42;2.88;;;1.60;;
53497;SDS011;39382;47.168;16.008;2023-10-13T11:56:12;6.18;;;2.00;;
53497;SDS011;39382;47.168;16.008;2023-10-13T11:58:38;3.80;;;2.03;;
53497;SDS011;39382;47.168;16.008;2023-10-13T12:01:05;6.38;;;1.60;;
53497;SDS011;39382;47.168;16.008;2023-10-13T12:03:37;2.88;;;1.65;;
53497;SDS011;39382;47.168;16.008;2023-10-13T12:06:21;5.88;;;2.30;;
53497;SDS011;39382;47.168;16.008;2023-10-13T12:11:40;4.80;;;2.05;;
53497;SDS011;39382;47.168;16.008;2023-10-13T12:14:10;3.67;;;2.10;;
53497;SDS011;39382;47.168;16.008;2023-10-13T12:16:49;4.68;;;1.80;;
53497;SDS011;39382;47.168;16.008;2023-10-13T12:19:16;2.83;;;1.42;;
53497;SDS011;39382;47.168;16.008;2023-10-13T12:21:49;3.47;;;1.83;;
53497;SDS011;39382;47.168;16.008;2023-10-13T12:24:24;3.20;;;1.75;;
53497;SDS011;39382;47.168;16.008;2023-10-13T12:27:05;7.07;;;2.00;;
53497;SDS011;39382;47.168;16.008;2023-10-13T12:29:45;6.55;;;2.78;;
53497;SDS011;39382;47.168;16.008;2023-10-13T12:32:11;4.57;;;2.17;;
53497;SDS011;39382;47.168;16.008;2023-10-13T12:34:39;7.13;;;1.88;;
53497;SDS011;39382;47.168;16.008;2023-10-13T12:37:24;4.55;;;1.77;;
53497;SDS011;39382;47.168;16.008;2023-10-13T12:40:10;4.20;;;2.35;;
53497;SDS011;39382;47.168;16.008;2023-10-13T12:42:57;4.88;;;2.20;;
53497;SDS011;39382;47.168;16.008;2023-10-13T12:45:42;3.45;;;2.30;;
53497;SDS011;39382;47.168;16.008;2023-10-13T12:48:27;3.50;;;1.63;;
53497;SDS011;39382;47.168;16.008;2023-10-13T12:51:12;4.97;;;2.08;;
53497;SDS011;39382;47.168;16.008;2023-10-13T12:53:56;5.13;;;2.20;;
53497;SDS011;39382;47.168;16.008;2023-10-13T12:56:29;4.38;;;1.70;;
53497;SDS011;39382;47.168;16.008;2023-10-13T12:58:55;4.18;;;2.33;;
53497;SDS011;39382;47.168;16.008;2023-10-13T13:01:22;4.38;;;2.20;;
53497;SDS011;39382;47.168;16.008;2023-10-13T13:03:50;3.40;;;1.85;;
53497;SDS011;39382;47.168;16.008;2023-10-13T13:06:24;5.57;;;1.85;;
53497;SDS011;39382;47.168;16.008;2023-10-13T13:08:54;6.95;;;2.17;;
53497;SDS011;39382;47.168;16.008;2023-10-13T13:11:26;5.85;;;1.50;;
53497;SDS011;39382;47.168;16.008;2023-10-13T13:13:54;4.07;;;1.60;;
53497;SDS011;39382;47.168;16.008;2023-10-13T13:16:20;5.40;;;2.05;;
53497;SDS011;39382;47.168;16.008;2023-10-13T13:18:49;4.18;;;1.38;;
53497;SDS011;39382;47.168;16.008;2023-10-13T13:21:15;6.57;;;2.30;;
53497;SDS011;39382;47.168;16.008;2023-10-13T13:23:50;5.32;;;1.65;;
53497;SDS011;39382;47.168;16.008;2023-10-13T13:26:16;6.28;;;2.20;;
53497;SDS011;39382;47.168;16.008;2023-10-13T13:28:43;2.35;;;1.20;;
53497;SDS011;39382;47.168;16.008;2023-10-13T13:31:22;7.10;;;1.95;;
53497;SDS011;39382;47.168;16.008;2023-10-13T13:33:54;4.10;;;1.67;;
53497;SDS011;39382;47.168;16.008;2023-10-13T13:36:20;6.18;;;2.17;;
53497;SDS011;39382;47.168;16.008;2023-10-13T13:38:47;8.48;;;2.20;;
53497;SDS011;39382;47.168;16.008;2023-10-13T13:41:19;6.60;;;2.58;;
53497;SDS011;39382;47.168;16.008;2023-10-13T13:43:46;5.90;;;1.83;;
53497;SDS011;39382;47.168;16.008;2023-10-13T13:46:20;4.40;;;2.03;;
53497;SDS011;39382;47.168;16.008;2023-10-13T13:48:58;5.95;;;2.03;;
53497;SDS011;39382;47.168;16.008;2023-10-13T13:51:29;3.10;;;1.77;;
53497;SDS011;39382;47.168;16.008;2023-10-13T13:53:57;4.70;;;2.03;;
53497;SDS011;39382;47.168;16.008;2023-10-13T13:56:24;5.72;;;1.65;;
53497;SDS011;39382;47.168;16.008;2023-10-13T13:58:50;8.52;;;2.30;;
53497;SDS011;39382;47.168;16.008;2023-10-13T14:01:17;7.82;;;2.15;;
53497;SDS011;39382;47.168;16.008;2023-10-13T14:03:44;4.80;;;1.85;;
53497;SDS011;39382;47.168;16.008;2023-10-13T14:06:11;8.43;;;2.72;;
53497;SDS011;39382;47.168;16.008;2023-10-13T14:09:04;4.45;;;1.98;;
53497;SDS011;39382;47.168;16.008;2023-10-13T14:11:39;2.13;;;1.67;;
53497;SDS011;39382;47.168;16.008;2023-10-13T14:14:14;6.68;;;2.05;;
53497;SDS011;39382;47.168;16.008;2023-10-13T14:16:50;3.35;;;1.50;;
53497;SDS011;39382;47.168;16.008;2023-10-13T14:19:16;5.82;;;2.53;;
53497;SDS011;39382;47.168;16.008;2023-10-13T14:21:54;5.43;;;3.72;;
53497;SDS011;39382;47.168;16.008;2023-10-13T14:24:21;10.15;;;3.40;;
53497;SDS011;39382;47.168;16.008;2023-10-13T14:26:57;7.18;;;2.42;;
53497;SDS011;39382;47.168;16.008;2023-10-13T14:29:42;7.80;;;2.28;;
53497;SDS011;39382;47.168;16.008;2023-10-13T14:32:09;3.03;;;2.30;;
53497;SDS011;39382;47.168;16.008;2023-10-13T14:34:42;6.10;;;2.67;;
53497;SDS011;39382;47.168;16.008;2023-10-13T14:37:09;4.10;;;2.15;;
53497;SDS011;39382;47.168;16.008;2023-10-13T14:39:41;6.82;;;3.40;;
53497;SDS011;39382;47.168;16.008;2023-10-13T14:42:07;6.00;;;2.53;;
53497;SDS011;39382;47.168;16.008;2023-10-13T14:44:33;3.17;;;2.00;;
53497;SDS011;39382;47.168;16.008;2023-10-13T14:46:59;5.50;;;1.95;;
53497;SDS011;39382;47.168;16.008;2023-10-13T14:49:30;4.30;;;1.98;;
53497;SDS011;39382;47.168;16.008;2023-10-13T14:51:56;7.28;;;2.13;;
53497;SDS011;39382;47.168;16.008;2023-10-13T14:54:24;5.47;;;2.92;;
53497;SDS011;39382;47.168;16.008;2023-10-13T14:56:59;3.78;;;2.60;;
53497;SDS011;39382;47.168;16.008;2023-10-13T14:59:26;5.00;;;2.08;;
53497;SDS011;39382;47.168;16.008;2023-10-13T15:01:52;3.42;;;2.17;;
53497;SDS011;39382;47.168;16.008;2023-10-13T15:04:18;5.35;;;2.08;;
53497;SDS011;39382;47.168;16.008;2023-10-13T15:06:49;5.20;;;3.00;;
53497;SDS011;39382;47.168;16.008;2023-10-13T15:09:15;6.22;;;2.38;;
53497;SDS011;39382;47.168;16.008;2023-10-13T15:11:48;3.60;;;2.38;;
53497;SDS011;39382;47.168;16.008;2023-10-13T15:14:18;6.78;;;1.63;;
53497;SDS011;39382;47.168;16.008;2023-10-13T15:16:45;4.75;;;2.08;;
53497;SDS011;39382;47.168;16.008;2023-10-13T15:19:11;6.25;;;2.90;;
53497;SDS011;39382;47.168;16.008;2023-10-13T15:21:37;4.22;;;2.30;;
53497;SDS011;39382;47.168;16.008;2023-10-13T15:24:05;6.60;;;3.03;;
53497;SDS011;39382;47.168;16.008;2023-10-13T15:29:22;5.68;;;2.63;;
53497;SDS011;39382;47.168;16.008;2023-10-13T15:31:51;2.22;;;1.98;;
53497;SDS011;39382;47.168;16.008;2023-10-13T15:34:26;6.93;;;2.58;;
53497;SDS011;39382;47.168;16.008;2023-10-13T15:36:53;5.75;;;2.70;;
53497;SDS011;39382;47.168;16.008;2023-10-13T15:39:20;6.45;;;2.78;;
53497;SDS011;39382;47.168;16.008;2023-10-13T15:41:49;6.30;;;3.30;;
53497;SDS011;39382;47.168;16.008;2023-10-13T15:44:21;4.78;;;3.05;;
53497;SDS011;39382;47.168;16.008;2023-10-13T15:46:52;7.70;;;2.97;;
53497;SDS011;39382;47.168;16.008;2023-10-13T15:49:18;7.43;;;3.70;;